Airfield :
LOGIN :

Register | Disclaimer

   EN    FR    IT 

 










Legend :    VFR   Marginal VFR   IFR   Intensive IFR   Very Intensive IFR
Visi :
Ceiling :
>= 8 km
>= 3000ft
5 to 8 km
1000 to 3000 ft
1500m to 5 km
500 to 1000 ft
800 to 1500m
200 to 500 ft
< 800m
< 200 ft
Symbols :   Thunderstorms  Fog  Heavy snow  Heavy precipitations  Wind > 20 kt
SIGMETs :     Misc.  Thunderstorms  Icing  Turbulence  Mountain Waves  Volcanic Ashes







- Airport Elevation : 844 ft
- IATA code : OSR


LKMT - Ostrava-Mosnov

CURRENT METAR :
  • 301630Z 05010KT CAVOK 12/01 Q1018 NOSIG

EXPIRED METARs :
  • 301600Z 05009KT CAVOK 13/02 Q1018 NOSIG
  • 301530Z 07008KT 030V100 CAVOK 12/00 Q1018 NOSIG
  • 301500Z 05010KT CAVOK 13/00 Q1019 NOSIG
  • 301430Z 06009KT 030V090 CAVOK 14/02 Q1019 NOSIG
  • 301400Z 03009KT CAVOK 13/02 Q1019 NOSIG

TAF TAF LKMT
Valid from the 30 at 12:00 until the 01 at 18:00 UTC


301100Z 3012/0118 03010KT CAVOK
TEMPO 3012/3022 9999 SCT040
TEMPO 0102/0106 03004KT 4000 BR NSC
PROB30
TEMPO 0103/0106 2000 MIFG
TEMPO 0110/0118 9999 SCT040
No reported NOTAMs for that airfield.



MET'MAP, your aeronautical weather chart ! - Copyright ORBIFLY December 2007 - Disclaimer

ORBIFLY MET'MAP TEAM :

Programming & Development : Alexandra Zaïnal
Concept & Development : Baudouin d'Aumeries
Co-Development & Prog : Marc-Olivier Méhu
Technical & hardware support : Manuel Goepfert

Contact : metmap@orbifly.com




SOURCES & CREDITS :

   NOAA